createdAt,value
2017-09-30T00:00:12.933Z,0
2017-09-30T00:01:16.426Z,0
2017-09-30T00:02:20.012Z,0
2017-09-30T00:03:23.796Z,0
2017-09-30T00:04:26.639Z,0
2017-09-30T00:05:29.802Z,0
2017-09-30T00:06:32.715Z,0
2017-09-30T00:07:36.203Z,0
2017-09-30T00:08:38.143Z,0
2017-09-30T00:09:41.774Z,0
2017-09-30T00:10:45.147Z,0
2017-09-30T00:11:48.425Z,0
2017-09-30T00:12:51.056Z,0
2017-09-30T00:13:52.877Z,0
2017-09-30T00:14:56.117Z,0
2017-09-30T00:15:58.717Z,0
2017-09-30T00:17:00.565Z,0
2017-09-30T00:18:05.400Z,0
2017-09-30T00:19:06.973Z,0
2017-09-30T00:20:08.590Z,0
2017-09-30T00:21:12.153Z,0
2017-09-30T00:22:16.053Z,0
2017-09-30T00:23:19.192Z,0
2017-09-30T00:24:20.965Z,0
2017-09-30T00:25:22.976Z,0
2017-09-30T00:26:25.393Z,0
2017-09-30T00:27:27.999Z,0
2017-09-30T00:28:30.919Z,0
2017-09-30T00:29:33.710Z,0
2017-09-30T00:30:36.789Z,0
2017-09-30T00:31:39.049Z,0
2017-09-30T00:32:41.832Z,0
2017-09-30T00:33:45.016Z,0
2017-09-30T00:34:47.180Z,0
2017-09-30T00:35:49.100Z,0
2017-09-30T00:36:50.917Z,0
2017-09-30T00:37:53.958Z,0
2017-09-30T00:38:56.032Z,0
2017-09-30T00:39:57.647Z,0
2017-09-30T00:40:59.262Z,0
2017-09-30T00:42:00.874Z,0
2017-09-30T00:43:02.489Z,0
2017-09-30T00:44:04.097Z,0
2017-09-30T00:45:05.711Z,0
2017-09-30T00:46:07.318Z,0
2017-09-30T00:47:08.930Z,0
2017-09-30T00:48:10.542Z,0
2017-09-30T00:49:12.159Z,0
2017-09-30T00:50:13.767Z,0
2017-09-30T00:51:15.381Z,0
2017-09-30T00:52:16.986Z,0
2017-09-30T00:53:18.597Z,0
2017-09-30T00:54:20.212Z,0
2017-09-30T00:55:21.823Z,0
2017-09-30T00:56:23.439Z,0
2017-09-30T00:57:25.050Z,0
2017-09-30T00:58:26.664Z,0
2017-09-30T00:59:28.274Z,0
2017-09-30T01:00:29.889Z,0
2017-09-30T01:01:31.499Z,0
2017-09-30T01:02:33.110Z,0
2017-09-30T01:03:34.720Z,0
2017-09-30T01:04:36.336Z,0
2017-09-30T01:05:37.943Z,0
2017-09-30T01:06:39.552Z,0
2017-09-30T01:07:41.168Z,0
2017-09-30T01:08:42.779Z,0
2017-09-30T01:09:44.393Z,0
2017-09-30T01:10:46.007Z,0
2017-09-30T01:11:47.617Z,0
2017-09-30T01:12:49.227Z,0
2017-09-30T01:13:50.841Z,0
2017-09-30T01:14:52.454Z,0
2017-09-30T01:15:54.060Z,0
2017-09-30T01:16:55.673Z,0
2017-09-30T01:17:57.282Z,0
2017-09-30T01:18:58.899Z,0
2017-09-30T01:20:00.504Z,0
2017-09-30T01:21:02.112Z,0
2017-09-30T01:22:03.726Z,0
2017-09-30T01:23:05.340Z,0
2017-09-30T01:24:06.949Z,0
2017-09-30T01:25:08.567Z,0
2017-09-30T01:26:10.173Z,0
2017-09-30T01:27:11.787Z,0
2017-09-30T01:28:13.392Z,0
2017-09-30T01:29:15.011Z,0
2017-09-30T01:30:16.618Z,0
2017-09-30T01:31:18.234Z,0
2017-09-30T01:32:19.843Z,0
2017-09-30T01:33:21.462Z,0
2017-09-30T01:34:23.075Z,0
2017-09-30T01:35:24.678Z,0
2017-09-30T01:36:26.295Z,0
2017-09-30T01:37:27.904Z,0
2017-09-30T01:38:29.521Z,0
2017-09-30T01:39:31.130Z,0
2017-09-30T01:40:32.750Z,0
2017-09-30T01:41:34.361Z,0
2017-09-30T01:42:35.971Z,0
2017-09-30T01:43:37.581Z,0
2017-09-30T01:44:39.197Z,0
2017-09-30T01:45:40.811Z,0
2017-09-30T01:46:42.420Z,0
2017-09-30T01:47:44.034Z,0
2017-09-30T01:48:45.646Z,0
2017-09-30T01:49:47.258Z,0
2017-09-30T01:50:48.866Z,0
2017-09-30T01:51:50.477Z,0
2017-09-30T01:52:52.093Z,0
2017-09-30T01:53:53.702Z,0
2017-09-30T01:54:55.322Z,0
2017-09-30T01:55:56.929Z,0
2017-09-30T01:56:58.544Z,0
2017-09-30T01:58:00.157Z,0
2017-09-30T01:59:01.766Z,0
2017-09-30T02:00:03.375Z,0
2017-09-30T02:01:04.993Z,0
2017-09-30T02:02:06.607Z,0
2017-09-30T02:03:08.217Z,0
2017-09-30T02:04:09.827Z,0
2017-09-30T02:05:11.442Z,0
2017-09-30T02:06:13.053Z,0
2017-09-30T02:07:14.660Z,0
2017-09-30T02:08:16.270Z,0
2017-09-30T02:09:17.885Z,0
2017-09-30T02:10:19.499Z,0
2017-09-30T02:11:21.104Z,0
2017-09-30T02:12:22.716Z,0
2017-09-30T02:13:24.327Z,0
2017-09-30T02:14:25.936Z,0
2017-09-30T02:15:27.553Z,0
2017-09-30T02:16:29.164Z,0
2017-09-30T02:17:30.778Z,0
2017-09-30T02:18:32.385Z,0
2017-09-30T02:19:33.999Z,0
2017-09-30T02:20:35.609Z,0
2017-09-30T02:21:37.223Z,0
2017-09-30T02:22:38.829Z,0
2017-09-30T02:23:40.449Z,0
2017-09-30T02:24:42.066Z,0
2017-09-30T02:25:43.680Z,0
2017-09-30T02:26:45.298Z,0
2017-09-30T02:27:46.901Z,0
2017-09-30T02:28:48.509Z,0
2017-09-30T02:29:50.134Z,0
2017-09-30T02:30:51.733Z,0
2017-09-30T02:31:53.347Z,0
2017-09-30T02:32:54.959Z,0
2017-09-30T02:33:56.568Z,0
2017-09-30T02:34:58.176Z,0
2017-09-30T02:35:59.791Z,0
2017-09-30T02:37:01.428Z,0
2017-09-30T02:38:03.017Z,0
2017-09-30T02:39:04.626Z,0
2017-09-30T02:40:06.241Z,0
2017-09-30T02:41:07.855Z,0
2017-09-30T02:42:09.465Z,0
2017-09-30T02:43:11.076Z,0
2017-09-30T02:44:12.693Z,0
2017-09-30T02:45:14.346Z,0
2017-09-30T02:46:15.916Z,0
2017-09-30T02:47:17.526Z,0
2017-09-30T02:48:19.142Z,0
2017-09-30T02:49:20.750Z,0
2017-09-30T02:50:22.363Z,0
2017-09-30T02:51:23.977Z,0
2017-09-30T02:52:25.585Z,0
2017-09-30T02:53:27.195Z,0
2017-09-30T02:54:28.833Z,0
2017-09-30T02:55:30.422Z,0
2017-09-30T02:56:32.029Z,0
2017-09-30T02:57:33.647Z,0
2017-09-30T02:58:35.255Z,0
2017-09-30T02:59:36.868Z,0
2017-09-30T03:00:38.483Z,0
2017-09-30T03:01:40.093Z,0
2017-09-30T03:02:41.700Z,0
2017-09-30T03:03:43.310Z,0
2017-09-30T03:04:44.926Z,0
2017-09-30T03:05:46.541Z,0
2017-09-30T03:06:48.151Z,0
2017-09-30T03:07:49.767Z,0
2017-09-30T03:08:51.374Z,0
2017-09-30T03:09:52.989Z,0
2017-09-30T03:10:54.597Z,0
2017-09-30T03:11:56.211Z,0
2017-09-30T03:12:57.817Z,0
2017-09-30T03:13:59.437Z,0
2017-09-30T03:15:01.040Z,0
2017-09-30T03:16:02.656Z,0
2017-09-30T03:17:04.272Z,0
2017-09-30T03:18:05.877Z,0
2017-09-30T03:19:07.486Z,0
2017-09-30T03:20:09.102Z,0
2017-09-30T03:21:10.712Z,0
2017-09-30T03:22:12.323Z,0
2017-09-30T03:23:13.934Z,0
2017-09-30T03:24:15.541Z,0
2017-09-30T03:25:17.159Z,0
2017-09-30T03:26:18.765Z,0
2017-09-30T03:27:20.379Z,0
2017-09-30T03:28:21.988Z,0
2017-09-30T03:29:23.601Z,0
2017-09-30T03:30:25.211Z,0
2017-09-30T03:31:26.819Z,0
2017-09-30T03:32:28.428Z,0
2017-09-30T03:33:30.046Z,0
2017-09-30T03:34:31.658Z,0
2017-09-30T03:35:33.267Z,0
2017-09-30T03:36:34.876Z,0
2017-09-30T03:37:36.488Z,0
2017-09-30T03:38:38.101Z,0
2017-09-30T03:39:39.707Z,0
2017-09-30T03:40:41.320Z,0
2017-09-30T03:41:42.934Z,0
2017-09-30T03:42:44.553Z,0
2017-09-30T03:43:46.157Z,0
2017-09-30T03:44:47.763Z,0
2017-09-30T03:45:49.378Z,0
2017-09-30T03:46:50.985Z,0
2017-09-30T03:47:52.602Z,0
2017-09-30T03:48:54.213Z,0
2017-09-30T03:49:55.821Z,0
2017-09-30T03:50:57.427Z,0
2017-09-30T03:51:59.043Z,0
2017-09-30T03:53:00.653Z,0
2017-09-30T03:54:02.263Z,0
2017-09-30T03:55:03.869Z,0
2017-09-30T03:56:05.486Z,0
2017-09-30T03:57:07.102Z,0
2017-09-30T03:58:08.711Z,0
2017-09-30T03:59:10.319Z,0
2017-09-30T04:00:11.935Z,0
2017-09-30T04:01:13.547Z,0
2017-09-30T04:02:15.155Z,0
2017-09-30T04:03:16.772Z,0
2017-09-30T04:04:18.381Z,0
2017-09-30T04:05:19.993Z,0
2017-09-30T04:06:21.598Z,0
2017-09-30T04:07:23.214Z,0
2017-09-30T04:08:24.819Z,0
2017-09-30T04:09:26.434Z,0
2017-09-30T04:10:28.042Z,0
2017-09-30T04:11:29.661Z,0
2017-09-30T04:12:31.265Z,0
2017-09-30T04:13:32.880Z,0
2017-09-30T04:14:34.486Z,0
2017-09-30T04:15:36.104Z,0
2017-09-30T04:16:37.713Z,0
2017-09-30T04:17:39.329Z,0
2017-09-30T04:18:40.935Z,0
2017-09-30T04:19:42.543Z,0
2017-09-30T04:20:44.155Z,0
2017-09-30T04:21:45.761Z,0
2017-09-30T04:22:47.375Z,0
2017-09-30T04:23:48.981Z,0
2017-09-30T04:24:50.595Z,0
2017-09-30T04:25:52.202Z,0
2017-09-30T04:26:53.819Z,0
2017-09-30T04:27:55.424Z,0
2017-09-30T04:28:57.048Z,0
2017-09-30T04:29:58.644Z,0
2017-09-30T04:31:00.259Z,0
2017-09-30T04:32:01.866Z,0
2017-09-30T04:33:03.484Z,0
2017-09-30T04:34:05.090Z,0
2017-09-30T04:35:06.706Z,0
2017-09-30T04:36:08.314Z,0
2017-09-30T04:37:09.921Z,0
2017-09-30T04:38:11.530Z,0
2017-09-30T04:39:13.142Z,0
2017-09-30T04:40:14.752Z,0
2017-09-30T04:41:16.365Z,0
2017-09-30T04:42:17.972Z,0
2017-09-30T04:43:19.589Z,0
2017-09-30T04:44:21.193Z,0
2017-09-30T04:45:22.807Z,0
2017-09-30T04:46:24.418Z,0
2017-09-30T04:47:26.028Z,0
2017-09-30T04:48:27.641Z,0
2017-09-30T04:49:29.252Z,0
2017-09-30T04:50:30.868Z,0
2017-09-30T04:51:32.469Z,0
2017-09-30T04:52:34.083Z,0
2017-09-30T04:53:35.691Z,0
2017-09-30T04:54:37.307Z,0
2017-09-30T04:55:38.913Z,0
2017-09-30T04:56:40.518Z,0
2017-09-30T04:57:42.132Z,0
2017-09-30T04:58:43.742Z,0
2017-09-30T04:59:45.352Z,0
2017-09-30T05:00:46.959Z,0
2017-09-30T05:01:48.568Z,0
2017-09-30T05:02:50.184Z,0
2017-09-30T05:03:51.796Z,0
2017-09-30T05:04:53.401Z,0
2017-09-30T05:05:55.012Z,0
2017-09-30T05:06:56.620Z,0
2017-09-30T05:07:58.236Z,0
2017-09-30T05:08:59.850Z,0
2017-09-30T05:10:01.454Z,4
2017-09-30T05:11:03.067Z,4
2017-09-30T05:12:04.673Z,4
2017-09-30T05:13:06.281Z,0
2017-09-30T05:14:07.895Z,4
2017-09-30T05:15:09.515Z,8
2017-09-30T05:16:11.119Z,8
2017-09-30T05:17:12.727Z,8
2017-09-30T05:18:14.337Z,12
2017-09-30T05:19:15.946Z,16
2017-09-30T05:20:17.562Z,20
2017-09-30T05:21:19.168Z,20
2017-09-30T05:22:20.787Z,28
2017-09-30T05:23:22.397Z,36
2017-09-30T05:24:24.006Z,40
2017-09-30T05:25:25.614Z,48
2017-09-30T05:26:27.230Z,56
2017-09-30T05:27:28.841Z,60
2017-09-30T05:28:30.453Z,64
2017-09-30T05:29:32.067Z,72
2017-09-30T05:30:33.679Z,80
2017-09-30T05:31:35.290Z,88
2017-09-30T05:32:36.919Z,92
2017-09-30T05:33:38.531Z,100
2017-09-30T05:34:40.141Z,100
2017-09-30T05:35:41.756Z,100
2017-09-30T05:36:43.365Z,92
2017-09-30T05:37:44.985Z,96
2017-09-30T05:38:46.592Z,100
2017-09-30T05:39:48.206Z,92
2017-09-30T05:40:49.820Z,96
2017-09-30T05:41:51.428Z,96
2017-09-30T05:42:53.044Z,100
2017-09-30T05:43:54.660Z,108
2017-09-30T05:44:56.269Z,108
2017-09-30T05:45:57.883Z,116
2017-09-30T05:46:59.495Z,116
2017-09-30T05:48:01.113Z,112
2017-09-30T05:49:02.718Z,124
2017-09-30T05:50:04.337Z,136
2017-09-30T05:51:05.954Z,152
2017-09-30T05:52:07.565Z,168
2017-09-30T05:53:09.179Z,188
2017-09-30T05:54:10.791Z,220
2017-09-30T05:55:12.402Z,248
2017-09-30T05:56:14.014Z,268
2017-09-30T05:57:15.627Z,284
2017-09-30T05:58:17.242Z,296
2017-09-30T05:59:18.855Z,308
2017-09-30T06:00:20.463Z,336
2017-09-30T06:01:22.082Z,348
2017-09-30T06:02:23.698Z,340
2017-09-30T06:03:25.313Z,320
2017-09-30T06:04:26.923Z,296
2017-09-30T06:05:28.541Z,296
2017-09-30T06:06:30.153Z,296
2017-09-30T06:07:31.763Z,316
2017-09-30T06:08:33.379Z,336
2017-09-30T06:09:34.996Z,348
2017-09-30T06:10:36.605Z,348
2017-09-30T06:11:38.222Z,376
2017-09-30T06:12:39.832Z,412
2017-09-30T06:13:41.451Z,448
2017-09-30T06:14:43.067Z,484
2017-09-30T06:15:44.674Z,512
2017-09-30T06:16:46.299Z,532
2017-09-30T06:17:47.901Z,564
2017-09-30T06:18:49.522Z,624
2017-09-30T06:19:51.132Z,728
2017-09-30T06:20:52.750Z,912
2017-09-30T06:21:54.363Z,1164
2017-09-30T06:22:55.972Z,1392
2017-09-30T06:23:57.584Z,1616
2017-09-30T06:24:59.197Z,1756
2017-09-30T06:26:00.816Z,1816
2017-09-30T06:27:02.651Z,1824
2017-09-30T06:28:04.892Z,1804
2017-09-30T06:29:06.527Z,1704
2017-09-30T06:30:08.147Z,1636
2017-09-30T06:31:09.759Z,1668
2017-09-30T06:32:11.382Z,1720
2017-09-30T06:33:12.995Z,1760
2017-09-30T06:34:14.616Z,1740
2017-09-30T06:35:16.231Z,1620
2017-09-30T06:36:18.364Z,1628
2017-09-30T06:37:19.977Z,1660
2017-09-30T06:38:21.598Z,1820
2017-09-30T06:39:23.216Z,2064
2017-09-30T06:40:24.831Z,2272
2017-09-30T06:41:26.453Z,2424
2017-09-30T06:42:28.067Z,2596
2017-09-30T06:43:29.685Z,2736
2017-09-30T06:44:31.293Z,2844
2017-09-30T06:45:32.914Z,2920
2017-09-30T06:46:34.533Z,2996
2017-09-30T06:47:36.153Z,3236
2017-09-30T06:48:37.763Z,3648
2017-09-30T06:49:39.382Z,3948
2017-09-30T06:50:40.994Z,4124
2017-09-30T06:51:42.614Z,4348
2017-09-30T06:52:44.228Z,4540
2017-09-30T06:53:45.850Z,4884
2017-09-30T06:54:47.461Z,5380
2017-09-30T06:55:49.081Z,5856
2017-09-30T06:56:50.696Z,6088
2017-09-30T06:57:52.314Z,6116
2017-09-30T06:58:53.923Z,6056
2017-09-30T06:59:55.547Z,5972
2017-09-30T07:00:57.158Z,5780
2017-09-30T07:01:58.779Z,5692
2017-09-30T07:03:00.394Z,5820
2017-09-30T07:04:02.021Z,5936
2017-09-30T07:05:03.638Z,6276
2017-09-30T07:06:05.252Z,6804
2017-09-30T07:07:06.871Z,6964
2017-09-30T07:08:08.484Z,6696
2017-09-30T07:09:10.104Z,6212
2017-09-30T07:10:11.757Z,5540
2017-09-30T07:11:13.380Z,4816
2017-09-30T07:12:14.989Z,4140
2017-09-30T07:13:16.621Z,3544
2017-09-30T07:14:18.222Z,2976
2017-09-30T07:15:19.842Z,2556
2017-09-30T07:16:21.456Z,2296
2017-09-30T07:17:23.076Z,2140
2017-09-30T07:18:24.695Z,2024
2017-09-30T07:19:26.315Z,1788
2017-09-30T07:20:27.930Z,1712
2017-09-30T07:21:29.545Z,1648
2017-09-30T07:22:31.162Z,1732
2017-09-30T07:23:32.787Z,1756
2017-09-30T07:24:34.407Z,1784
2017-09-30T07:25:36.021Z,1908
2017-09-30T07:26:37.637Z,2012
2017-09-30T07:27:39.253Z,2100
2017-09-30T07:28:40.870Z,2164
2017-09-30T07:29:42.483Z,2164
2017-09-30T07:30:44.101Z,2096
2017-09-30T07:31:45.722Z,1952
2017-09-30T07:32:47.341Z,1824
2017-09-30T07:33:48.953Z,1832
2017-09-30T07:34:50.566Z,2008
2017-09-30T07:35:52.186Z,2272
2017-09-30T07:36:54.235Z,2564
2017-09-30T07:37:55.852Z,2856
2017-09-30T07:38:57.480Z,3016
2017-09-30T07:39:59.086Z,3068
2017-09-30T07:41:00.702Z,2996
2017-09-30T07:42:02.320Z,2864
2017-09-30T07:43:03.938Z,2768
2017-09-30T07:44:05.548Z,2688
2017-09-30T07:45:07.166Z,2596
2017-09-30T07:46:09.540Z,2556
2017-09-30T07:47:11.160Z,2520
2017-09-30T07:48:12.769Z,2468
2017-09-30T07:49:14.381Z,2428
2017-09-30T07:50:16.005Z,2452
2017-09-30T07:51:17.623Z,2532
2017-09-30T07:52:19.238Z,2620
2017-09-30T07:53:20.858Z,2696
2017-09-30T07:54:22.481Z,2760
2017-09-30T07:55:24.082Z,2796
2017-09-30T07:56:25.705Z,2764
2017-09-30T07:57:27.321Z,2672
2017-09-30T07:58:28.933Z,2584
2017-09-30T07:59:30.550Z,2548
2017-09-30T08:00:32.170Z,2560
2017-09-30T08:01:33.790Z,2608
2017-09-30T08:02:35.401Z,2628
2017-09-30T08:03:37.028Z,2632
2017-09-30T08:04:38.632Z,2612
2017-09-30T08:05:40.252Z,2568
2017-09-30T08:06:41.865Z,2548
2017-09-30T08:07:43.484Z,2448
2017-09-30T08:08:45.100Z,2296
2017-09-30T08:09:46.719Z,2264
2017-09-30T08:10:48.331Z,2208
2017-09-30T08:11:49.951Z,2348
2017-09-30T08:12:51.567Z,2344
2017-09-30T08:13:53.189Z,2268
2017-09-30T08:14:54.802Z,2224
2017-09-30T08:15:56.422Z,2212
2017-09-30T08:16:58.034Z,2160
2017-09-30T08:17:59.648Z,2144
2017-09-30T08:19:01.270Z,2152
2017-09-30T08:20:02.894Z,2140
2017-09-30T08:21:04.503Z,2032
2017-09-30T08:22:06.116Z,1936
2017-09-30T08:23:07.744Z,1964
2017-09-30T08:24:09.352Z,2076
2017-09-30T08:25:10.967Z,2236
2017-09-30T08:26:12.582Z,2480
2017-09-30T08:27:14.202Z,2712
2017-09-30T08:28:15.814Z,2956
2017-09-30T08:29:17.434Z,3088
2017-09-30T08:30:19.049Z,2916
2017-09-30T08:31:20.669Z,2652
2017-09-30T08:32:22.280Z,2520
2017-09-30T08:33:23.899Z,2484
2017-09-30T08:34:25.522Z,2572
2017-09-30T08:35:27.130Z,2624
2017-09-30T08:36:28.750Z,2536
2017-09-30T08:37:30.371Z,2428
2017-09-30T08:38:31.987Z,2344
2017-09-30T08:39:33.601Z,2240
2017-09-30T08:40:35.221Z,2132
2017-09-30T08:41:36.841Z,2040
2017-09-30T08:42:38.456Z,2000
2017-09-30T08:43:40.075Z,1984
2017-09-30T08:44:41.690Z,1932
2017-09-30T08:45:43.308Z,1996
2017-09-30T08:46:44.925Z,2020
2017-09-30T08:47:46.537Z,1976
2017-09-30T08:48:48.150Z,1928
2017-09-30T08:49:49.773Z,1896
2017-09-30T08:50:51.384Z,1924
2017-09-30T08:51:53.005Z,2004
2017-09-30T08:52:54.623Z,2120
2017-09-30T08:53:56.235Z,2252
2017-09-30T08:54:57.848Z,2432
2017-09-30T08:55:59.466Z,2748
2017-09-30T08:57:01.087Z,3128
2017-09-30T08:58:02.701Z,3564
2017-09-30T08:59:04.318Z,3932
2017-09-30T09:00:05.932Z,4068
2017-09-30T09:01:07.551Z,3984
2017-09-30T09:02:09.164Z,3820
2017-09-30T09:03:10.783Z,3656
2017-09-30T09:04:12.396Z,3664
2017-09-30T09:05:14.014Z,3528
2017-09-30T09:06:15.644Z,3544
2017-09-30T09:07:17.242Z,3596
2017-09-30T09:08:18.856Z,3600
2017-09-30T09:09:20.473Z,3504
2017-09-30T09:10:22.088Z,3404
2017-09-30T09:11:23.702Z,3464
2017-09-30T09:12:25.326Z,3680
2017-09-30T09:13:26.943Z,3988
2017-09-30T09:14:28.556Z,4400
2017-09-30T09:15:30.169Z,4792
2017-09-30T09:16:31.792Z,5436
2017-09-30T09:17:33.402Z,6192
2017-09-30T09:18:35.021Z,7152
2017-09-30T09:19:36.639Z,8236
2017-09-30T09:20:38.256Z,9392
2017-09-30T09:21:39.872Z,10160
2017-09-30T09:22:41.492Z,10052
2017-09-30T09:23:43.105Z,9360
2017-09-30T09:24:44.724Z,8644
2017-09-30T09:25:46.343Z,7912
2017-09-30T09:26:47.953Z,7584
2017-09-30T09:27:49.574Z,7812
2017-09-30T09:28:51.186Z,7748
2017-09-30T09:29:52.805Z,7572
2017-09-30T09:30:54.422Z,7752
2017-09-30T09:31:56.035Z,7896
2017-09-30T09:32:57.654Z,7784
2017-09-30T09:33:59.274Z,7244
2017-09-30T09:35:00.892Z,6600
2017-09-30T09:36:02.503Z,6636
2017-09-30T09:37:04.124Z,6828
2017-09-30T09:38:05.741Z,7012
2017-09-30T09:39:07.353Z,7144
2017-09-30T09:40:08.970Z,6912
2017-09-30T09:41:10.591Z,6592
2017-09-30T09:42:12.205Z,5800
2017-09-30T09:43:13.825Z,5532
2017-09-30T09:44:15.448Z,5424
2017-09-30T09:45:17.061Z,5888
2017-09-30T09:46:18.673Z,6000
2017-09-30T09:47:20.291Z,6260
2017-09-30T09:48:21.911Z,6468
2017-09-30T09:49:23.522Z,6504
2017-09-30T09:50:25.138Z,6324
2017-09-30T09:51:26.754Z,6172
2017-09-30T09:52:28.375Z,5676
2017-09-30T09:53:29.989Z,5040
2017-09-30T09:54:31.611Z,4644
2017-09-30T09:55:33.225Z,4656
2017-09-30T09:56:34.845Z,4692
2017-09-30T09:57:36.456Z,4756
2017-09-30T09:58:38.073Z,4788
2017-09-30T09:59:39.688Z,4720
2017-09-30T10:00:41.300Z,4516
2017-09-30T10:01:42.921Z,4440
2017-09-30T10:02:44.542Z,4744
2017-09-30T10:03:46.162Z,5416
2017-09-30T10:04:47.781Z,5888
2017-09-30T10:05:49.391Z,6248
2017-09-30T10:06:51.010Z,6164
2017-09-30T10:07:52.624Z,7000
2017-09-30T10:08:54.243Z,7584
2017-09-30T10:09:55.865Z,7808
2017-09-30T10:10:57.486Z,7868
2017-09-30T10:11:59.097Z,7184
2017-09-30T10:13:00.719Z,7216
2017-09-30T10:14:02.330Z,5616
2017-09-30T10:15:03.948Z,5608
2017-09-30T10:16:05.567Z,5428
2017-09-30T10:17:07.388Z,5344
2017-09-30T10:18:09.005Z,5076
2017-09-30T10:19:10.624Z,4984
2017-09-30T10:20:12.236Z,4792
2017-09-30T10:21:13.853Z,4860
2017-09-30T10:22:15.472Z,4696
2017-09-30T10:23:17.091Z,3948
2017-09-30T10:24:18.756Z,3264
2017-09-30T10:25:20.379Z,2352
2017-09-30T10:26:22.013Z,2144
2017-09-30T10:27:23.630Z,1948
2017-09-30T10:28:25.240Z,1772
2017-09-30T10:29:26.861Z,1984
2017-09-30T10:30:28.478Z,1720
2017-09-30T10:31:30.100Z,1720
2017-09-30T10:32:31.720Z,1600
2017-09-30T10:33:33.335Z,2064
2017-09-30T10:34:34.946Z,3112
2017-09-30T10:35:36.561Z,4420
2017-09-30T10:36:38.182Z,5044
2017-09-30T10:37:39.800Z,4736
2017-09-30T10:38:41.413Z,3880
2017-09-30T10:39:43.030Z,3760
2017-09-30T10:40:44.648Z,2132
2017-09-30T10:41:46.263Z,1872
2017-09-30T10:42:47.887Z,1284
2017-09-30T10:43:49.500Z,956
2017-09-30T10:44:51.139Z,936
2017-09-30T10:45:52.738Z,848
2017-09-30T10:46:54.354Z,1300
2017-09-30T10:47:55.968Z,1596
2017-09-30T10:48:57.589Z,1592
2017-09-30T10:49:59.207Z,1716
2017-09-30T10:51:00.819Z,1844
2017-09-30T10:52:02.436Z,2232
2017-09-30T10:53:04.050Z,2540
2017-09-30T10:54:05.677Z,2688
2017-09-30T10:55:07.285Z,3492
2017-09-30T10:56:08.905Z,3792
2017-09-30T10:57:10.520Z,3396
2017-09-30T10:58:12.134Z,3680
2017-09-30T10:59:13.754Z,3280
2017-09-30T11:00:15.371Z,2920
2017-09-30T11:01:16.990Z,3160
2017-09-30T11:02:18.600Z,3004
2017-09-30T11:03:20.212Z,2948
2017-09-30T11:04:21.831Z,2676
2017-09-30T11:05:23.443Z,2348
2017-09-30T11:06:25.059Z,2260
2017-09-30T11:07:26.682Z,2488
2017-09-30T11:08:28.302Z,2676
2017-09-30T11:09:29.920Z,2896
2017-09-30T11:10:31.539Z,2668
2017-09-30T11:11:33.150Z,2468
2017-09-30T11:12:34.764Z,2400
2017-09-30T11:13:36.388Z,2388
2017-09-30T11:14:38.005Z,2452
2017-09-30T11:15:40.167Z,2444
2017-09-30T11:16:42.352Z,2316
2017-09-30T11:17:43.977Z,2384
2017-09-30T11:18:45.615Z,2564
2017-09-30T11:19:47.234Z,2668
2017-09-30T11:20:48.847Z,2932
2017-09-30T11:21:50.467Z,3380
2017-09-30T11:22:52.080Z,3372
2017-09-30T11:23:53.700Z,3596
2017-09-30T11:24:55.310Z,3520
2017-09-30T11:25:56.936Z,3452
2017-09-30T11:26:58.548Z,3160
2017-09-30T11:28:00.168Z,3576
2017-09-30T11:29:01.788Z,3788
2017-09-30T11:30:03.403Z,3552
2017-09-30T11:31:05.019Z,3744
2017-09-30T11:32:06.637Z,3436
2017-09-30T11:33:08.254Z,2100
2017-09-30T11:34:09.863Z,924
2017-09-30T11:35:11.486Z,964
2017-09-30T11:36:14.365Z,960
2017-09-30T11:37:16.105Z,1924
2017-09-30T11:38:17.721Z,2200
2017-09-30T11:39:19.342Z,1900
2017-09-30T11:40:20.958Z,2168
2017-09-30T11:41:22.565Z,1248
2017-09-30T11:42:24.188Z,1592
2017-09-30T11:43:25.804Z,976
2017-09-30T11:44:27.419Z,1108
2017-09-30T11:45:29.036Z,1044
2017-09-30T11:46:30.646Z,1704
2017-09-30T11:47:32.285Z,1168
2017-09-30T11:48:33.887Z,1544
2017-09-30T11:49:35.511Z,1092
2017-09-30T11:50:37.120Z,1336
2017-09-30T11:51:38.739Z,1348
2017-09-30T11:52:40.348Z,2076
2017-09-30T11:53:41.962Z,2092
2017-09-30T11:54:43.582Z,1716
2017-09-30T11:55:45.197Z,2212
2017-09-30T11:56:46.811Z,1836
2017-09-30T11:57:48.557Z,1552
2017-09-30T11:58:50.168Z,1716
2017-09-30T11:59:51.783Z,2388
2017-09-30T12:00:53.462Z,1940
2017-09-30T12:01:55.068Z,2360
2017-09-30T12:02:56.688Z,2248
2017-09-30T12:03:58.298Z,1592
2017-09-30T12:04:59.922Z,2044
2017-09-30T12:06:01.542Z,1704
2017-09-30T12:07:03.160Z,1800
2017-09-30T12:08:04.774Z,1640
2017-09-30T12:09:06.388Z,1684
2017-09-30T12:10:08.007Z,1852
2017-09-30T12:11:09.626Z,1984
2017-09-30T12:12:11.247Z,2124
2017-09-30T12:13:12.861Z,2144
2017-09-30T12:14:14.483Z,1436
2017-09-30T12:15:16.091Z,1576
2017-09-30T12:16:17.714Z,1676
2017-09-30T12:17:19.324Z,1380
2017-09-30T12:18:20.938Z,1304
2017-09-30T12:19:22.558Z,1544
2017-09-30T12:20:24.175Z,1656
2017-09-30T12:21:25.786Z,1476
2017-09-30T12:22:27.400Z,1464
2017-09-30T12:23:29.018Z,1472
2017-09-30T12:24:30.641Z,1424
2017-09-30T12:25:32.246Z,1392
2017-09-30T12:26:33.859Z,1068
2017-09-30T12:27:35.476Z,996
2017-09-30T12:28:37.092Z,1024
2017-09-30T12:29:38.698Z,1180
2017-09-30T12:30:40.312Z,1308
2017-09-30T12:31:41.930Z,1376
2017-09-30T12:32:43.542Z,1564
2017-09-30T12:33:45.164Z,1632
2017-09-30T12:34:46.781Z,1776
2017-09-30T12:35:48.391Z,1940
2017-09-30T12:36:50.003Z,1916
2017-09-30T12:37:51.641Z,1996
2017-09-30T12:38:53.240Z,2028
2017-09-30T12:39:54.852Z,1844
2017-09-30T12:40:56.467Z,1620
2017-09-30T12:41:58.087Z,1444
2017-09-30T12:42:59.727Z,1324
2017-09-30T12:44:01.312Z,1236
2017-09-30T12:45:02.925Z,1148
2017-09-30T12:46:04.538Z,1224
2017-09-30T12:47:06.157Z,1500
2017-09-30T12:48:07.773Z,1696
2017-09-30T12:49:09.393Z,1716
2017-09-30T12:50:11.003Z,1644
2017-09-30T12:51:12.618Z,1720
2017-09-30T12:52:14.228Z,1888
2017-09-30T12:53:15.848Z,1928
2017-09-30T12:54:17.463Z,1864
2017-09-30T12:55:19.084Z,1628
2017-09-30T12:56:20.691Z,1384
2017-09-30T12:57:22.306Z,1272
2017-09-30T12:58:23.915Z,1264
2017-09-30T12:59:25.532Z,1284
2017-09-30T13:00:27.140Z,1328
2017-09-30T13:01:28.760Z,1444
2017-09-30T13:02:30.371Z,1556
2017-09-30T13:03:31.991Z,1488
2017-09-30T13:04:33.601Z,1596
2017-09-30T13:05:35.210Z,1704
2017-09-30T13:06:36.830Z,1652
2017-09-30T13:07:38.436Z,1080
2017-09-30T13:08:40.053Z,1256
2017-09-30T13:09:41.670Z,1236
2017-09-30T13:10:43.288Z,1480
2017-09-30T13:11:44.899Z,1636
2017-09-30T13:12:46.513Z,1332
2017-09-30T13:13:48.126Z,1000
2017-09-30T13:14:49.742Z,1032
2017-09-30T13:15:51.352Z,1044
2017-09-30T13:16:52.992Z,924
2017-09-30T13:17:54.583Z,728
2017-09-30T13:18:56.357Z,776
2017-09-30T13:19:57.962Z,872
2017-09-30T13:20:59.578Z,996
2017-09-30T13:22:01.194Z,1316
2017-09-30T13:23:02.808Z,1392
2017-09-30T13:24:04.422Z,1484
2017-09-30T13:25:06.038Z,1588
2017-09-30T13:26:07.654Z,1696
2017-09-30T13:27:09.267Z,1624
2017-09-30T13:28:10.886Z,1464
2017-09-30T13:29:12.497Z,1556
2017-09-30T13:30:14.111Z,1604
2017-09-30T13:31:15.730Z,1692
2017-09-30T13:32:17.343Z,1772
2017-09-30T13:33:18.961Z,1760
2017-09-30T13:34:20.569Z,1888
2017-09-30T13:35:22.207Z,1960
2017-09-30T13:36:26.183Z,1892
2017-09-30T13:37:27.782Z,1792
2017-09-30T13:38:29.403Z,1788
2017-09-30T13:39:31.025Z,1852
2017-09-30T13:40:32.640Z,1920
2017-09-30T13:41:34.277Z,1968
2017-09-30T13:42:35.826Z,1972
2017-09-30T13:43:37.439Z,1968
2017-09-30T13:44:39.055Z,1920
2017-09-30T13:45:40.672Z,1828
2017-09-30T13:46:42.286Z,1732
2017-09-30T13:47:43.905Z,1640
2017-09-30T13:48:45.522Z,1588
2017-09-30T13:49:47.129Z,1528
2017-09-30T13:50:48.744Z,1536
2017-09-30T13:51:50.366Z,1608
2017-09-30T13:52:51.978Z,1672
2017-09-30T13:53:53.590Z,1708
2017-09-30T13:54:55.203Z,1636
2017-09-30T13:55:56.833Z,1548
2017-09-30T13:56:58.448Z,1624
2017-09-30T13:58:00.068Z,1792
2017-09-30T13:59:01.674Z,1964
2017-09-30T14:00:03.287Z,1832
2017-09-30T14:01:04.907Z,1624
2017-09-30T14:02:06.514Z,1592
2017-09-30T14:03:08.131Z,1648
2017-09-30T14:04:09.749Z,1564
2017-09-30T14:05:11.362Z,1964
2017-09-30T14:06:12.975Z,2104
2017-09-30T14:07:14.587Z,1928
2017-09-30T14:08:16.210Z,1660
2017-09-30T14:09:17.823Z,1404
2017-09-30T14:10:19.442Z,1680
2017-09-30T14:11:21.090Z,1192
2017-09-30T14:12:22.669Z,996
2017-09-30T14:13:24.286Z,836
2017-09-30T14:14:25.895Z,852
2017-09-30T14:15:27.531Z,756